Terminal Aerodrome Forecast
Issued by NWS

Home | Current Version | Previous Version | Text Only | Print | Product List | Glossary On
Versions: 1 2 3 4 5 6 7 8 9 10 11 12 13 14 15 16 17 18 19 20 21 22 23 24 25
288
FTUS45 KTFX 160520
TAFHLN
TAF
KHLN 160520Z 1606/1706 VRB05KT 6SM -SN SCT025 OVC040
      TEMPO 1608/1612 2SM -SN OVC025
     FM161200 VRB04KT P6SM SCT015 OVC030
      TEMPO 1612/1615 1SM -SN BKN015 BKN020
     FM161500 VRB04KT P6SM OVC035 PROB30 1615/1621 1SM -SN OVC015
     FM170000 VRB03KT P6SM FEW035 SCT080=

USA.gov is the U.S. government's official web portal to all federal, state and local government web resources and services.